Time;durP1;ratioP1;P1;durP2;ratioP2;P2;SDS_P1;SDS_P2;PMS_P1;PMS_P2;Temp;Humidity;BMP_temperature;BMP_pressure;BME280_temperature;BME280_humidity;BME280_pressure;Samples;Min_cycle;Max_cycle;Signal;HPM_P1;HPM_P2
2022/09/01 00:01:07;;;;;;;11.85;10.65;;;;;;;15.97;100.00;96710.22;5102702;27;20205;-52
2022/09/01 00:03:34;;;;;;;11.40;10.45;;;;;;;15.98;100.00;96706.56;5101891;28;21415;-52
2022/09/01 00:06:02;;;;;;;10.60;9.70;;;;;;;15.89;100.00;96714.59;5103677;28;20626;-50
2022/09/01 00:08:30;;;;;;;11.75;10.55;;;;;;;15.87;100.00;96715.78;5103006;27;20588;-56
2022/09/01 00:10:57;;;;;;;11.17;10.03;;;;;;;15.81;100.00;96719.94;5102887;28;20229;-54
2022/09/01 00:13:23;;;;;;;12.23;9.73;;;;;;;15.82;100.00;96712.78;5101109;28;20233;-57
2022/09/01 00:15:50;;;;;;;11.55;10.48;;;;;;;15.82;100.00;96718.97;5102480;28;20304;-55
2022/09/01 00:18:18;;;;;;;9.88;9.07;;;;;;;15.77;100.00;96723.13;5102202;28;20312;-56
2022/09/01 00:20:44;;;;;;;11.30;10.23;;;;;;;15.74;100.00;96718.97;5103622;28;20225;-57
2022/09/01 00:23:11;;;;;;;11.60;10.60;;;;;;;15.71;100.00;96722.00;5101900;28;20533;-58
2022/09/01 00:25:38;;;;;;;11.60;10.60;;;;;;;15.71;100.00;96716.66;5102343;28;20293;-53
2022/09/01 00:28:05;;;;;;;10.47;9.67;;;;;;;15.74;100.00;96716.31;5102120;28;20652;-56
2022/09/01 00:30:31;;;;;;;10.73;9.80;;;;;;;15.75;100.00;96712.66;5102329;28;20308;-56
2022/09/01 00:32:58;;;;;;;10.67;9.73;;;;;;;15.76;100.00;96717.00;5102468;28;20227;-57
2022/09/01 00:35:27;;;;;;;10.87;9.87;;;;;;;15.68;100.00;96714.34;5102988;28;20612;-57
2022/09/01 00:37:54;;;;;;;13.93;10.50;;;;;;;15.66;100.00;96705.69;5101810;28;20240;-57
2022/09/01 00:40:21;;;;;;;11.27;10.00;;;;;;;15.62;100.00;96707.06;5101636;28;20292;-56
2022/09/01 00:42:49;;;;;;;12.20;11.03;;;;;;;15.58;100.00;96702.22;5101951;28;20231;-57
2022/09/01 00:45:18;;;;;;;11.25;10.35;;;;;;;15.54;100.00;96699.06;5121637;28;20269;-57
2022/09/01 00:47:44;;;;;;;11.60;10.50;;;;;;;15.51;100.00;96695.94;5114870;28;20864;-57
2022/09/01 00:50:13;;;;;;;10.70;9.73;;;;;;;15.51;100.00;96699.44;5111415;28;20234;-57
2022/09/01 00:52:46;;;;;;;11.10;10.20;;;;;;;15.47;100.00;96698.06;5102012;28;20309;-54
2022/09/01 00:55:16;;;;;;;10.90;10.03;;;;;;;15.47;100.00;96698.06;5100976;28;20686;-54
2022/09/01 00:57:44;;;;;;;10.83;9.90;;;;;;;15.47;100.00;96699.91;5101408;28;20716;-56
2022/09/01 01:00:14;;;;;;;11.00;9.95;;;;;;;15.45;100.00;96700.06;5101189;28;20229;-55
2022/09/01 01:02:41;;;;;;;11.60;10.60;;;;;;;15.42;100.00;96695.06;5101523;28;20293;-55
2022/09/01 01:05:09;;;;;;;10.77;9.98;;;;;;;15.37;100.00;96698.25;5101288;28;20300;-53
2022/09/01 01:07:37;;;;;;;13.50;10.70;;;;;;;15.42;100.00;96700.41;5101407;28;20247;-55
2022/09/01 01:10:06;;;;;;;10.83;9.77;;;;;;;15.45;100.00;96697.41;5100598;28;20259;-54
2022/09/01 01:12:36;;;;;;;10.97;10.07;;;;;;;15.37;100.00;96695.59;5101959;28;20205;-55
2022/09/01 01:15:05;;;;;;;11.00;10.10;;;;;;;15.31;100.00;96698.94;5100763;28;20198;-56
2022/09/01 01:17:32;;;;;;;10.93;9.93;;;;;;;15.31;100.00;96690.94;5101100;28;20218;-55
2022/09/01 01:23:04;;;;;;;11.60;10.48;;;;;;;15.29;100.00;96694.78;5101741;28;20266;-54
2022/09/01 01:25:34;;;;;;;11.17;10.17;;;;;;;15.26;100.00;96689.81;5101374;28;20212;-56
2022/09/01 01:28:11;;;;;;;11.03;9.93;;;;;;;15.26;100.00;96695.13;5101128;28;20565;-55
2022/09/01 01:30:40;;;;;;;11.87;10.77;;;;;;;15.30;100.00;96689.28;5100897;28;20205;-61
2022/09/01 01:33:07;;;;;;;11.27;10.17;;;;;;;15.26;100.00;96701.31;5101283;28;20202;-52
2022/09/01 01:35:34;;;;;;;11.83;10.73;;;;;;;15.30;100.00;96701.78;5101176;28;20720;-53
2022/09/01 01:38:06;;;;;;;11.23;10.13;;;;;;;15.33;100.00;96704.13;5100321;28;20333;-52
2022/09/01 01:40:34;;;;;;;11.47;9.93;;;;;;;15.29;100.00;96708.94;5101484;28;20581;-52
2022/09/01 01:43:02;;;;;;;10.43;9.53;;;;;;;15.32;100.00;96705.94;5100354;28;20284;-52
2022/09/01 01:45:29;;;;;;;11.03;9.93;;;;;;;15.33;100.00;96702.28;5101310;28;20264;-53
2022/09/01 01:47:56;;;;;;;11.77;10.40;;;;;;;15.29;100.00;96689.47;5100207;28;20199;-52
2022/09/01 01:50:25;;;;;;;11.17;10.07;;;;;;;15.26;100.00;96705.81;5100997;28;20245;-54
2022/09/01 01:52:51;;;;;;;11.67;10.43;;;;;;;15.24;100.00;96710.44;5099652;28;20208;-53
2022/09/01 01:55:18;;;;;;;11.23;10.23;;;;;;;15.20;100.00;96712.63;5100165;28;20634;-52
2022/09/01 01:57:48;;;;;;;11.00;10.10;;;;;;;15.20;100.00;96711.78;5100352;28;20312;-52
2022/09/01 02:00:18;;;;;;;11.10;10.10;;;;;;;15.22;100.00;96715.13;5100677;28;20288;-53
2022/09/01 02:02:47;;;;;;;10.90;9.80;;;;;;;15.18;100.00;96713.78;5100028;28;20712;-53
2022/09/01 02:05:20;;;;;;;11.03;10.13;;;;;;;15.21;100.00;96716.13;5100153;28;20233;-53
2022/09/01 02:07:47;;;;;;;11.43;10.33;;;;;;;15.14;100.00;96718.63;5100871;28;20190;-51
2022/09/01 02:10:14;;;;;;;12.17;10.43;;;;;;;15.12;100.00;96719.81;5099995;28;20284;-53
2022/09/01 02:12:42;;;;;;;11.53;10.53;;;;;;;15.09;100.00;96715.63;5101278;28;20300;-53
2022/09/01 02:15:11;;;;;;;11.43;10.53;;;;;;;15.09;100.00;96717.50;5099280;28;20212;-52
2022/09/01 02:17:38;;;;;;;11.93;10.82;;;;;;;15.07;100.00;96719.47;5100681;28;20753;-52
2022/09/01 02:20:06;;;;;;;11.23;10.23;;;;;;;15.04;100.00;96714.50;5102242;28;20676;-52
2022/09/01 02:22:33;;;;;;;11.57;10.43;;;;;;;15.07;100.00;96716.81;5102933;28;20335;-53
2022/09/01 02:24:59;;;;;;;12.13;10.93;;;;;;;15.10;100.00;96719.13;5101679;28;20618;-52
2022/09/01 02:27:28;;;;;;;13.77;10.17;;;;;;;15.10;100.00;96713.81;5101127;28;20198;-53
2022/09/01 02:29:57;;;;;;;12.48;11.27;;;;;;;15.06;100.00;96713.31;5100372;28;20212;-52
2022/09/01 02:32:25;;;;;;;12.63;11.33;;;;;;;15.03;100.00;96712.81;5101982;28;20227;-52
2022/09/01 02:35:00;;;;;;;12.83;11.60;;;;;;;15.05;100.00;96713.50;5100506;28;20293;-53
2022/09/01 02:37:26;;;;;;;13.70;12.23;;;;;;;15.04;100.00;96714.50;5099507;28;20583;-53
2022/09/01 02:39:55;;;;;;;12.23;11.17;;;;;;;15.00;100.00;96719.31;5100622;28;20281;-52
2022/09/01 02:42:26;;;;;;;11.80;10.67;;;;;;;15.01;100.00;96717.50;5101524;28;20202;-53
2022/09/01 02:44:57;;;;;;;15.40;13.80;;;;;;;15.02;100.00;96711.97;5100837;28;20201;-53
2022/09/01 02:47:27;;;;;;;14.83;13.50;;;;;;;15.03;100.00;96712.81;5099939;28;21030;-52
2022/09/01 02:49:54;;;;;;;15.33;13.57;;;;;;;15.03;100.00;96710.16;5100218;28;20653;-52
2022/09/01 02:52:20;;;;;;;23.23;20.93;;;;;;;15.03;100.00;96710.16;5100595;28;20541;-53
2022/09/01 02:54:48;;;;;;;14.47;13.17;;;;;;;15.07;100.00;96722.13;5100951;28;20363;-52
2022/09/01 02:57:15;;;;;;;12.93;11.83;;;;;;;15.06;100.00;96715.13;5100899;28;20258;-52
2022/09/01 02:59:42;;;;;;;13.27;11.67;;;;;;;15.03;100.00;96720.81;5106786;28;20305;-53
2022/09/01 03:02:09;;;;;;;13.13;11.80;;;;;;;15.07;100.00;96727.47;5106313;28;20233;-53
2022/09/01 03:04:37;;;;;;;13.37;12.07;;;;;;;15.10;100.00;96719.97;5103429;28;20193;-53
2022/09/01 03:07:07;;;;;;;13.17;11.77;;;;;;;15.15;100.00;96716.81;5098631;28;20642;-52
2022/09/01 03:09:34;;;;;;;13.00;11.73;;;;;;;15.24;100.00;96718.44;5099432;28;20206;-53
2022/09/01 03:12:01;;;;;;;13.55;12.32;;;;;;;15.28;100.00;96717.09;5098576;28;20210;-53
2022/09/01 03:14:28;;;;;;;13.07;11.70;;;;;;;15.32;100.00;96716.59;5099956;28;20201;-54
2022/09/01 03:16:56;;;;;;;13.48;12.27;;;;;;;15.36;100.00;96706.44;5103004;28;20193;-53
2022/09/01 03:19:22;;;;;;;14.73;13.43;;;;;;;15.37;100.00;96702.78;5103524;28;20708;-53
2022/09/01 03:21:50;;;;;;;13.63;12.27;;;;;;;15.43;100.00;96707.41;5101944;28;20225;-53
2022/09/01 03:24:18;;;;;;;14.97;13.47;;;;;;;15.54;100.00;96706.25;5103526;28;20229;-53
2022/09/01 03:26:46;;;;;;;15.37;13.97;;;;;;;15.49;100.00;96706.75;5103723;28;20288;-54
2022/09/01 03:29:14;;;;;;;14.10;12.65;;;;;;;15.53;100.00;96707.22;5102381;28;20313;-53
2022/09/01 03:31:41;;;;;;;14.63;13.07;;;;;;;15.55;100.00;96707.91;5102177;28;20562;-54
2022/09/01 03:34:10;;;;;;;15.20;13.57;;;;;;;15.57;100.00;96712.06;5104794;28;20216;-52
2022/09/01 03:36:36;;;;;;;13.83;12.53;;;;;;;15.60;100.00;96713.53;5101906;28;20217;-52
2022/09/01 03:39:06;;;;;;;14.83;13.47;;;;;;;15.61;100.00;96709.88;5102409;28;20328;-53
2022/09/01 03:41:36;;;;;;;14.53;13.20;;;;;;;15.63;100.00;96710.53;5103437;28;20541;-52
2022/09/01 03:44:04;;;;;;;14.50;13.10;;;;;;;15.67;100.00;96709.19;5102712;28;20284;-53
2022/09/01 03:46:33;;;;;;;15.43;13.87;;;;;;;15.75;100.00;96702.00;5102595;28;20198;-52
2022/09/01 03:49:00;;;;;;;15.53;13.83;;;;;;;15.72;100.00;96710.34;5102286;28;20195;-51
2022/09/01 03:51:29;;;;;;;15.27;13.87;;;;;;;15.74;100.00;96712.81;5102731;28;20197;-52
2022/09/01 03:53:58;;;;;;;15.03;13.63;;;;;;;15.76;100.00;96710.81;5102799;28;21294;-53
2022/09/01 03:56:27;;;;;;;14.73;13.33;;;;;;;15.77;100.00;96704.47;5103953;28;20206;-51
2022/09/01 03:58:56;;;;;;;15.13;13.60;;;;;;;15.76;100.00;96714.31;5102304;28;20232;-51
2022/09/01 04:01:24;;;;;;;15.93;14.57;;;;;;;15.77;100.00;96707.13;5103542;28;20213;-53
2022/09/01 04:03:51;;;;;;;14.60;13.30;;;;;;;15.78;100.00;96701.63;5102696;28;20288;-51
2022/09/01 04:06:22;;;;;;;14.80;13.50;;;;;;;15.81;100.00;96695.94;5102303;28;20224;-52
2022/09/01 04:09:01;;;;;;;13.97;12.77;;;;;;;15.81;100.00;96701.28;5102761;28;20268;-51
2022/09/01 04:11:29;;;;;;;15.53;14.13;;;;;;;15.84;100.00;96695.59;5102645;28;20288;-53
2022/09/01 04:13:56;;;;;;;13.93;12.83;;;;;;;15.84;100.00;96698.28;5102726;28;20197;-52
2022/09/01 04:19:18;;;;;;;15.40;14.10;;;;;;;15.76;100.00;96709.00;5103195;28;20760;-52
2022/09/01 04:21:45;;;;;;;14.20;12.90;;;;;;;15.81;100.00;96708.44;5103651;28;20305;-53
2022/09/01 04:24:14;;;;;;;13.45;12.35;;;;;;;15.78;100.00;96704.31;5102724;28;20212;-52
2022/09/01 04:26:44;;;;;;;11.75;10.75;;;;;;;15.83;100.00;96703.78;5102623;28;20189;-51
2022/09/01 04:29:11;;;;;;;13.73;12.52;;;;;;;15.88;100.00;96702.25;5104380;28;20206;-51
2022/09/01 04:31:38;;;;;;;14.77;13.43;;;;;;;15.91;100.00;96698.41;5106740;28;20228;-52
2022/09/01 04:34:12;;;;;;;13.00;11.82;;;;;;;15.94;100.00;96700.75;5109514;28;20193;-51
2022/09/01 04:36:40;;;;;;;11.55;10.45;;;;;;;16.02;100.00;96697.16;5126185;28;20213;-51
2022/09/01 04:39:09;;;;;;;13.80;12.70;;;;;;;16.02;100.00;96694.50;5126752;28;20225;-52
2022/09/01 04:41:39;;;;;;;12.82;11.80;;;;;;;16.06;100.00;96698.50;5134420;28;20185;-53
2022/09/01 04:44:08;;;;;;;11.95;10.95;;;;;;;16.08;100.00;96691.16;5132101;28;20179;-52
2022/09/01 04:46:41;;;;;;;12.73;11.52;;;;;;;16.14;100.00;96699.28;5123620;28;20198;-53
2022/09/01 04:49:08;;;;;;;13.45;12.35;;;;;;;16.16;100.00;96693.75;5125303;28;20181;-51
2022/09/01 04:51:35;;;;;;;11.55;10.65;;;;;;;16.19;100.00;96694.22;5129144;28;20188;-51
2022/09/01 04:54:02;;;;;;;11.80;10.80;;;;;;;16.25;100.00;96698.06;5124077;28;20193;-52
2022/09/01 04:56:35;;;;;;;12.45;11.45;;;;;;;16.24;100.00;96696.38;5126563;28;20185;-52
2022/09/01 04:59:05;;;;;;;12.10;11.10;;;;;;;16.27;100.00;96691.53;5105540;28;20220;-53
2022/09/01 05:01:41;;;;;;;12.43;11.43;;;;;;;16.25;100.00;96688.22;5102501;28;20283;-52
2022/09/01 05:04:10;;;;;;;11.87;10.77;;;;;;;16.30;100.00;96696.50;5101667;28;20285;-52
2022/09/01 05:06:38;;;;;;;12.52;11.40;;;;;;;16.27;100.00;96694.19;5101832;28;20197;-51
2022/09/01 05:09:05;;;;;;;12.80;11.65;;;;;;;16.28;100.00;96692.34;5111311;28;20193;-52
2022/09/01 05:11:36;;;;;;;13.10;12.00;;;;;;;16.26;100.00;96689.03;5120851;28;20198;-52
2022/09/01 05:14:04;;;;;;;11.75;10.70;;;;;;;16.30;100.00;96687.66;5111757;28;20206;-51
2022/09/01 05:16:34;;;;;;;11.95;10.75;;;;;;;16.32;100.00;96693.66;5107135;28;20205;-51
2022/09/01 05:19:02;;;;;;;10.82;9.82;;;;;;;16.34;100.00;96691.63;5101537;28;20275;-51
2022/09/01 05:21:29;;;;;;;11.07;10.07;;;;;;;16.38;100.00;96698.28;5100927;28;20248;-51
2022/09/01 05:23:56;;;;;;;11.05;10.15;;;;;;;16.38;100.00;96691.13;5101695;28;20208;-52
2022/09/01 05:26:24;;;;;;;10.88;10.02;;;;;;;16.36;100.00;96689.63;5100318;28;20601;-52
2022/09/01 05:28:53;;;;;;;12.38;11.25;;;;;;;16.38;100.00;96688.44;5101388;28;20197;-51
2022/09/01 05:31:20;;;;;;;12.38;11.27;;;;;;;16.37;100.00;96691.28;5100533;28;20201;-52
2022/09/01 05:33:49;;;;;;;12.15;10.95;;;;;;;16.30;100.00;96693.81;5098059;28;20697;-51
2022/09/01 05:36:18;;;;;;;12.95;11.65;;;;;;;16.33;100.00;96700.66;5100487;28;20294;-52
2022/09/01 05:38:46;;;;;;;10.98;9.88;;;;;;;16.36;100.00;96695.81;5099566;28;20248;-51
2022/09/01 05:41:15;;;;;;;11.93;10.75;;;;;;;16.36;100.00;96690.47;5100556;28;20201;-51
2022/09/01 05:43:45;;;;;;;12.35;10.32;;;;;;;16.34;100.00;96699.66;5101521;28;20237;-51
2022/09/01 05:46:15;;;;;;;11.30;10.40;;;;;;;16.33;100.00;96696.13;5100832;28;20606;-52
2022/09/01 05:48:42;;;;;;;12.40;11.35;;;;;;;16.35;100.00;96693.31;5100463;28;20201;-51
2022/09/01 05:51:15;;;;;;;11.88;10.88;;;;;;;16.35;100.00;96702.16;5101366;28;21033;-51
2022/09/01 05:53:42;;;;;;;13.00;11.90;;;;;;;16.39;100.00;96698.13;5101306;28;20218;-52
2022/09/01 05:56:12;;;;;;;12.27;11.20;;;;;;;16.41;100.00;96705.94;5100173;28;20657;-51
2022/09/01 05:58:39;;;;;;;13.27;12.15;;;;;;;16.45;100.00;96699.22;5099807;28;20217;-52
2022/09/01 06:01:06;;;;;;;14.02;12.68;;;;;;;16.42;100.00;96700.44;5100818;28;20271;-53
2022/09/01 06:03:33;;;;;;;11.60;10.68;;;;;;;16.46;100.00;96700.91;5098671;28;20704;-53
2022/09/01 06:06:03;;;;;;;11.50;10.35;;;;;;;16.49;100.00;96705.88;5099933;28;20205;-52
2022/09/01 06:08:31;;;;;;;11.77;10.75;;;;;;;16.46;100.00;96700.06;5099768;28;20193;-51
2022/09/01 06:10:58;;;;;;;10.57;9.50;;;;;;;16.50;100.00;96704.06;5100722;28;20300;-52
2022/09/01 06:13:25;;;;;;;12.88;11.68;;;;;;;16.50;100.00;96701.38;5099771;28;20236;-52
2022/09/01 06:15:52;;;;;;;11.80;10.80;;;;;;;16.48;100.00;96704.22;5101835;28;20208;-52
2022/09/01 06:18:20;;;;;;;11.05;9.98;;;;;;;16.53;100.00;96706.34;5099930;28;20620;-52
2022/09/01 06:20:48;;;;;;;10.13;9.27;;;;;;;16.58;100.00;96709.38;5100979;28;20255;-51
2022/09/01 06:23:16;;;;;;;11.55;10.45;;;;;;;16.59;100.00;96711.00;5101185;28;20210;-52
2022/09/01 06:25:45;;;;;;;10.73;9.82;;;;;;;16.64;100.00;96708.66;5100780;28;20201;-51
2022/09/01 06:28:13;;;;;;;11.30;10.20;;;;;;;16.65;100.00;96710.31;5099611;28;21490;-52
2022/09/01 06:30:41;;;;;;;10.90;9.77;;;;;;;16.64;99.63;96709.47;5100748;28;20254;-52
2022/09/01 06:33:09;;;;;;;11.80;10.80;;;;;;;16.69;99.40;96714.25;5100099;28;20201;-51
2022/09/01 06:35:37;;;;;;;11.63;10.60;;;;;;;16.69;99.76;96720.44;5101228;28;20217;-51
2022/09/01 06:38:05;;;;;;;10.88;9.93;;;;;;;16.63;97.94;96712.31;5099543;28;20229;-51
2022/09/01 06:40:32;;;;;;;10.50;9.65;;;;;;;16.69;98.62;96723.09;5099870;28;20302;-52
2022/09/01 06:43:01;;;;;;;11.95;10.80;;;;;;;16.69;98.21;96715.09;5100974;28;20205;-52
2022/09/01 06:45:27;;;;;;;10.68;9.70;;;;;;;16.76;98.96;96723.22;5099781;28;20582;-52
2022/09/01 06:47:56;;;;;;;11.10;10.10;;;;;;;16.81;99.65;96712.84;5100310;28;20201;-51
2022/09/01 06:50:23;;;;;;;10.65;9.73;;;;;;;16.86;99.54;96716.63;5102883;28;20532;-53
2022/09/01 06:53:00;;;;;;;9.40;8.60;;;;;;;16.90;99.42;96720.59;5104576;28;20267;-53
2022/09/01 06:55:32;;;;;;;11.55;10.32;;;;;;;16.83;97.28;96729.50;5104027;28;20214;-52
2022/09/01 06:58:04;;;;;;;10.85;9.93;;;;;;;16.88;98.33;96727.97;5105486;28;20245;-51
2022/09/01 07:00:30;;;;;;;11.10;10.10;;;;;;;16.90;95.49;96731.28;5103560;28;20255;-50
2022/09/01 07:02:58;;;;;;;10.50;9.50;;;;;;;16.96;96.55;96726.25;5104868;28;20709;-51
2022/09/01 07:05:25;;;;;;;11.65;10.55;;;;;;;16.91;97.47;96732.94;5103826;28;20688;-53
2022/09/01 07:07:54;;;;;;;11.65;10.57;;;;;;;16.88;97.06;96737.81;5104445;28;20281;-51
2022/09/01 07:10:22;;;;;;;12.18;11.10;;;;;;;16.97;97.06;96736.72;5102398;28;20198;-53
2022/09/01 07:12:49;;;;;;;11.13;10.15;;;;;;;17.01;98.46;96748.72;5103085;28;20532;-51
2022/09/01 07:15:18;;;;;;;11.50;10.35;;;;;;;17.07;98.53;96748.03;5103334;28;20301;-52
2022/09/01 07:17:48;;;;;;;11.55;10.52;;;;;;;17.08;99.37;96746.97;5103656;28;20220;-52
2022/09/01 07:20:16;;;;;;;10.45;9.55;;;;;;;17.12;99.69;96739.44;5103914;28;20314;-52
2022/09/01 07:22:42;;;;;;;12.55;11.32;;;;;;;17.13;98.09;96751.78;5112561;28;20181;-52
2022/09/01 07:25:11;;;;;;;11.57;10.50;;;;;;;17.14;97.85;96743.63;5125332;28;20212;-53
2022/09/01 07:27:39;;;;;;;10.82;9.93;;;;;;;17.15;98.54;96747.91;5126205;28;20196;-51
2022/09/01 07:30:08;;;;;;;11.73;10.73;;;;;;;17.18;96.78;96744.88;5110181;28;20600;-52
2022/09/01 07:32:38;;;;;;;12.73;10.07;;;;;;;17.19;97.02;96748.38;5104450;28;20205;-52
2022/09/01 07:35:07;;;;;;;11.93;10.65;;;;;;;17.14;98.24;96748.97;5103064;28;20649;-51
2022/09/01 07:37:36;;;;;;;11.10;9.20;;;;;;;17.21;98.51;96749.91;5102558;28;20776;-52
2022/09/01 07:40:05;;;;;;;11.43;10.30;;;;;;;17.23;97.96;96752.38;5102930;28;20201;-51
2022/09/01 07:42:33;;;;;;;9.55;8.70;;;;;;;17.26;98.87;96757.34;5102471;28;20220;-52
2022/09/01 07:45:00;;;;;;;11.32;10.32;;;;;;;17.29;98.85;96762.31;5102625;28;20229;-51
2022/09/01 07:47:28;;;;;;;11.48;10.48;;;;;;;17.29;97.28;96755.13;5102611;28;20591;-52
2022/09/01 07:49:56;;;;;;;11.38;10.20;;;;;;;17.35;97.64;96756.28;5102381;28;20210;-53
2022/09/01 07:52:24;;;;;;;12.77;11.45;;;;;;;17.30;97.07;96754.13;5103683;28;20589;-52
2022/09/01 07:54:52;;;;;;;15.23;11.05;;;;;;;17.28;97.50;96756.16;5103724;28;20209;-51
2022/09/01 07:57:21;;;;;;;10.98;10.05;;;;;;;17.27;96.58;96759.00;5100771;28;20195;-51
2022/09/01 07:59:49;;;;;;;10.52;9.48;;;;;;;17.32;97.56;96753.97;5103181;28;20228;-51
2022/09/01 08:02:17;;;;;;;11.00;10.10;;;;;;;17.34;97.41;96755.44;5102211;28;20714;-52
2022/09/01 08:04:43;;;;;;;11.80;10.65;;;;;;;17.39;96.25;96754.91;5102131;28;20198;-53
2022/09/01 08:07:12;;;;;;;12.20;10.77;;;;;;;17.31;96.92;96753.13;5101762;28;20304;-51
2022/09/01 08:09:39;;;;;;;12.13;10.93;;;;;;;17.30;96.22;96748.78;5102973;28;20221;-53
2022/09/01 08:12:08;;;;;;;10.63;9.73;;;;;;;17.30;97.45;96753.31;5102153;28;20937;-51
2022/09/01 08:14:34;;;;;;;10.50;9.50;;;;;;;17.39;97.46;96753.03;5102559;28;20237;-53
2022/09/01 08:17:01;;;;;;;10.48;9.40;;;;;;;17.41;95.68;96759.03;5102745;28;20202;-52
2022/09/01 08:19:30;;;;;;;9.73;8.70;;;;;;;17.42;95.92;96757.19;5102258;28;20235;-52
2022/09/01 08:21:56;;;;;;;10.07;9.23;;;;;;;17.38;94.22;96755.91;5102370;28;20259;-53
2022/09/01 08:24:24;;;;;;;10.30;9.35;;;;;;;17.41;94.62;96761.72;5102458;28;20296;-51
2022/09/01 08:26:51;;;;;;;8.88;8.10;;;;;;;17.48;95.16;96772.50;5102809;28;20204;-52
2022/09/01 08:29:18;;;;;;;9.50;8.65;;;;;;;17.49;95.48;96773.34;5102294;28;20280;-52
2022/09/01 08:31:46;;;;;;;9.73;8.82;;;;;;;17.54;95.27;96773.59;5102535;28;20284;-52
2022/09/01 08:34:15;;;;;;;9.88;9.07;;;;;;;17.53;93.92;96764.78;5103364;28;20288;-52
2022/09/01 08:36:42;;;;;;;9.85;8.88;;;;;;;17.50;92.52;96765.13;5102431;28;20626;-52
2022/09/01 08:39:09;;;;;;;10.32;8.75;;;;;;;17.55;93.21;96760.06;5101315;28;20233;-51
2022/09/01 08:41:42;;;;;;;8.25;7.55;;;;;;;17.62;93.20;96762.84;5102240;28;20201;-52
2022/09/01 08:44:16;;;;;;;8.30;7.53;;;;;;;17.63;91.50;96760.00;5101785;28;20553;-51
2022/09/01 08:46:43;;;;;;;8.77;7.95;;;;;;;17.70;91.91;96765.44;5102509;28;20694;-53
2022/09/01 08:49:14;;;;;;;9.98;8.68;;;;;;;17.68;90.17;96770.13;5101494;28;20255;-52
2022/09/01 08:51:46;;;;;;;7.88;7.13;;;;;;;17.74;90.67;96761.41;5101694;28;20285;-52
2022/09/01 08:54:20;;;;;;;9.25;8.35;;;;;;;17.71;90.74;96770.59;5101345;28;20193;-50
2022/09/01 08:56:52;;;;;;;8.77;8.07;;;;;;;17.66;89.95;96758.81;5101907;28;20208;-52
2022/09/01 08:59:20;;;;;;;8.43;7.68;;;;;;;17.71;89.70;96767.94;5100554;28;20539;-52
2022/09/01 09:01:54;;;;;;;9.00;8.15;;;;;;;17.69;91.14;96756.59;5102085;28;20227;-51
2022/09/01 09:04:29;;;;;;;8.60;7.80;;;;;;;17.75;91.45;96771.91;5102590;28;20232;-51
2022/09/01 09:07:00;;;;;;;8.82;8.00;;;;;;;17.78;89.87;96760.03;5102192;28;20197;-52
2022/09/01 09:09:34;;;;;;;8.38;7.57;;;;;;;17.89;89.62;96768.38;5101835;28;20236;-51
2022/09/01 09:12:21;;;;;;;7.88;7.18;;;;;;;18.06;88.16;96763.69;5101796;28;20196;-53
2022/09/01 09:14:56;;;;;;;8.13;6.97;;;;;;;18.27;85.95;96760.22;5101288;28;20212;-52
2022/09/01 09:17:25;;;;;;;8.07;7.28;;;;;;;18.51;85.32;96754.56;5102796;28;20204;-51
2022/09/01 09:19:52;;;;;;;7.72;7.03;;;;;;;18.70;84.80;96758.47;5101298;28;20308;-52
2022/09/01 09:22:19;;;;;;;5.70;5.20;;;;;;;18.85;84.72;96757.38;5101719;28;20847;-51
2022/09/01 09:24:50;;;;;;;7.30;6.68;;;;;;;18.82;79.92;96757.78;5102334;28;20231;-51
2022/09/01 09:27:20;;;;;;;10.65;9.70;;;;;;;18.91;81.51;96755.81;5101935;28;20387;-52
2022/09/01 09:29:49;;;;;;;6.25;5.70;;;;;;;18.88;80.76;96751.63;5102246;28;20249;-51
2022/09/01 09:32:16;;;;;;;5.32;4.90;;;;;;;18.96;81.11;96765.91;5101709;28;20228;-51
2022/09/01 09:34:43;;;;;;;5.75;5.32;;;;;;;18.81;77.90;96766.81;5103407;28;20215;-52
2022/09/01 09:37:19;;;;;;;4.95;4.65;;;;;;;18.82;79.79;96757.78;5114064;28;20261;-52
2022/09/01 09:40:02;;;;;;;6.05;5.60;;;;;;;18.80;79.77;96751.78;5114123;28;20256;-51
2022/09/01 09:42:30;;;;;;;6.47;5.97;;;;;;;18.76;79.83;96750.50;5100969;28;20206;-53
2022/09/01 09:44:58;;;;;;;5.82;5.32;;;;;;;18.81;81.27;96752.63;5100416;28;20258;-52
2022/09/01 09:47:35;;;;;;;6.63;5.85;;;;;;;18.88;82.52;96753.50;5100940;28;20309;-51
2022/09/01 09:50:17;;;;;;;6.43;5.68;;;;;;;18.98;81.94;96753.19;5100681;28;20284;-50
2022/09/01 09:52:45;;;;;;;7.30;5.80;;;;;;;19.02;82.16;96751.78;5101939;28;20197;-52
2022/09/01 09:55:24;;;;;;;5.80;5.30;;;;;;;18.95;82.74;96748.22;5100252;28;20635;-51
2022/09/01 09:57:55;;;;;;;6.22;5.78;;;;;;;18.99;81.64;96741.44;5100812;28;20280;-52
2022/09/01 10:00:24;;;;;;;6.93;6.32;;;;;;;18.94;80.92;96747.38;5100183;28;20210;-52
2022/09/01 10:02:54;;;;;;;6.60;6.10;;;;;;;18.98;81.15;96740.63;5101206;28;20289;-53
2022/09/01 10:05:28;;;;;;;6.90;6.30;;;;;;;19.11;82.57;96729.16;5100999;28;20284;-50
2022/09/01 10:07:55;;;;;;;7.30;6.70;;;;;;;19.20;82.53;96730.69;5100822;28;20297;-52
2022/09/01 10:10:29;;;;;;;6.68;6.18;;;;;;;19.24;82.99;96738.13;5100188;28;20223;-51
2022/09/01 10:12:58;;;;;;;6.78;6.25;;;;;;;19.16;79.40;96729.41;5101695;28;20225;-52
2022/09/01 10:15:27;;;;;;;6.45;5.85;;;;;;;19.23;80.08;96732.97;5100483;28;20280;-51
2022/09/01 10:17:56;;;;;;;6.15;5.57;;;;;;;19.39;82.05;96730.00;5100525;28;20290;-51
2022/09/01 10:20:25;;;;;;;6.47;5.97;;;;;;;19.34;80.61;96722.53;5100600;28;20353;-51
2022/09/01 10:22:52;;;;;;;7.78;5.30;;;;;;;19.40;81.21;96734.34;5101948;28;20201;-51
2022/09/01 10:25:21;;;;;;;5.88;5.38;;;;;;;19.46;80.91;96725.53;5103479;28;20205;-51
2022/09/01 10:27:50;;;;;;;5.90;5.40;;;;;;;19.49;78.61;96727.81;5105144;28;20200;-52
2022/09/01 10:30:19;;;;;;;5.15;4.70;;;;;;;19.63;79.24;96729.56;5103406;28;20201;-51
2022/09/01 10:32:47;;;;;;;5.03;4.70;;;;;;;19.68;78.31;96721.75;5105656;28;20293;-52
2022/09/01 10:35:18;;;;;;;6.00;5.50;;;;;;;19.63;75.39;96729.56;5105371;28;20661;-51
2022/09/01 10:37:46;;;;;;;5.57;5.18;;;;;;;19.70;76.31;96725.06;5104850;28;20264;-52
2022/09/01 10:40:16;;;;;;;4.63;4.32;;;;;;;19.78;76.92;96721.38;5104213;28;20505;-52
2022/09/01 10:42:45;;;;;;;5.38;4.95;;;;;;;19.85;73.36;96728.44;5104973;28;20217;-52
2022/09/01 10:45:31;;;;;;;4.20;3.90;;;;;;;19.83;74.94;96719.78;5104086;28;20280;-51
2022/09/01 10:48:08;;;;;;;4.57;4.20;;;;;;;19.90;76.10;96724.34;5103839;28;20216;-52
2022/09/01 10:50:35;;;;;;;3.97;3.78;;;;;;;19.88;75.23;96722.69;5104182;28;20217;-50
2022/09/01 10:53:05;;;;;;;4.95;4.43;;;;;;;19.93;75.23;96726.63;5104372;27;20201;-50
2022/09/01 10:55:46;;;;;;;4.78;4.47;;;;;;;19.98;75.51;96719.63;5104081;28;20198;-52
2022/09/01 10:58:30;;;;;;;4.78;4.38;;;;;;;20.05;74.21;96717.00;5103656;28;20237;-52
2022/09/01 11:01:01;;;;;;;4.50;4.10;;;;;;;20.14;74.92;96715.78;5104976;28;20213;-51
2022/09/01 11:03:55;;;;;;;8.00;4.00;;;;;;;20.16;73.74;96711.03;5104665;28;20198;-53
2022/09/01 11:06:33;;;;;;;4.70;4.35;;;;;;;20.24;73.69;96705.47;5104478;28;20220;-52
2022/09/01 11:09:03;;;;;;;3.90;3.60;;;;;;;20.47;74.25;96711.38;5103581;28;20276;-51
2022/09/01 11:11:35;;;;;;;4.40;4.10;;;;;;;20.56;72.05;96709.31;5104522;28;20205;-52
2022/09/01 11:14:06;;;;;;;4.35;4.05;;;;;;;20.59;71.25;96716.97;5103885;28;20593;-51
2022/09/01 11:16:36;;;;;;;4.25;3.90;;;;;;;20.62;71.61;96714.69;5103623;28;20189;-53
2022/09/01 11:19:23;;;;;;;3.80;3.60;;;;;;;20.68;71.95;96707.69;5104299;28;20256;-51
2022/09/01 11:22:05;;;;;;;3.63;3.38;;;;;;;20.58;70.95;96710.75;5104472;28;20263;-51
2022/09/01 11:24:47;;;;;;;5.55;3.90;;;;;;;20.49;70.51;96700.41;5103328;28;20206;-51
2022/09/01 11:28:06;;;;;;;4.15;3.85;;;;;;;20.54;71.07;96709.53;5103441;28;20320;-51
2022/09/01 11:30:44;;;;;;;3.92;3.72;;;;;;;20.48;69.83;96702.28;5068317;27;20209;-50
2022/09/01 11:33:39;;;;;;;5.10;3.90;;;;;;;20.59;71.10;96699.00;5104612;28;20293;-51
2022/09/01 11:36:07;;;;;;;4.32;3.50;;;;;;;20.63;70.07;96699.41;5102211;28;20216;-51